Terminal Aerodrome Forecast
Issued by NWS Sioux Falls, SD

Home | Current Version | Previous Version | Text Only | Print | Product List | Glossary On
Versions: 1 2 3 4 5 6 7 8 9 10 11 12 13 14 15 16
757
FTUS43 KFSD 231720
TAFHON
TAF
KHON 231720Z 2318/2418 20018G26KT P6SM BKN250
     FM240000 18012G17KT P6SM SCT250
     FM240500 16014G21KT P6SM BKN200 WS014/18040KT
     FM241100 16014KT P6SM BKN200
     FM241700 23013KT P6SM BKN110=

USA.gov is the U.S. government's official web portal to all federal, state and local government web resources and services.